createdAt,value
2017-01-10T00:00:31.584Z,1.52
2017-01-10T00:00:53.331Z,1.51
2017-01-10T00:01:19.840Z,1.52
2017-01-10T00:01:42.608Z,1.51
2017-01-10T00:02:05.345Z,1.48
2017-01-10T00:02:53.609Z,1.51
2017-01-10T00:03:21.126Z,1.52
2017-01-10T00:04:19.514Z,1.52
2017-01-10T00:04:41.266Z,1.52
2017-01-10T00:05:04.036Z,1.50
2017-01-10T00:05:26.829Z,1.49
2017-01-10T00:05:49.597Z,1.50
2017-01-10T00:06:16.139Z,1.51
2017-01-10T00:06:39.888Z,1.51
2017-01-10T00:07:06.471Z,1.52
2017-01-10T00:07:28.208Z,1.51
2017-01-10T00:07:51.971Z,1.50
2017-01-10T00:08:44.992Z,1.51
2017-01-10T00:09:38.045Z,1.50
2017-01-10T00:10:04.574Z,1.52
2017-01-10T00:10:55.648Z,1.52
2017-01-10T00:11:17.418Z,1.50
2017-01-10T00:11:39.196Z,1.50
2017-01-10T00:12:33.401Z,1.52
2017-01-10T00:13:01.832Z,1.51
2017-01-10T00:13:29.604Z,1.51
2017-01-10T00:13:51.348Z,1.51
2017-01-10T00:14:17.862Z,1.50
2017-01-10T00:14:40.616Z,1.49
2017-01-10T00:15:07.129Z,1.47
2017-01-10T00:15:33.651Z,1.48
2017-01-10T00:16:03.106Z,1.47
2017-01-10T00:16:29.628Z,1.48
2017-01-10T00:16:52.395Z,1.48
2017-01-10T00:17:22.495Z,1.48
2017-01-10T00:17:50.028Z,1.50
2017-01-10T00:18:43.076Z,1.48
2017-01-10T00:19:09.593Z,1.48
2017-01-10T00:19:36.123Z,1.51
2017-01-10T00:19:57.886Z,1.51
2017-01-10T00:20:20.674Z,1.51
2017-01-10T00:20:45.287Z,1.53
2017-01-10T00:21:07.057Z,1.49
2017-01-10T00:22:27.634Z,1.51
2017-01-10T00:22:50.414Z,1.51
2017-01-10T00:23:16.959Z,1.52
2017-01-10T00:23:40.709Z,1.52
2017-01-10T00:24:29.016Z,1.52
2017-01-10T00:24:51.782Z,1.55
2017-01-10T00:25:23.053Z,1.55
2017-01-10T00:25:45.841Z,1.54
2017-01-10T00:26:35.134Z,1.51
2017-01-10T00:27:01.650Z,1.51
2017-01-10T00:27:23.403Z,1.50
2017-01-10T00:27:54.692Z,1.50
2017-01-10T00:28:16.519Z,1.50
2017-01-10T00:28:39.270Z,1.50
2017-01-10T00:30:05.737Z,1.51
2017-01-10T00:30:27.495Z,1.50
2017-01-10T00:30:49.239Z,1.52
2017-01-10T00:31:15.774Z,1.53
2017-01-10T00:31:42.298Z,1.54
2017-01-10T00:32:13.574Z,1.54
2017-01-10T00:32:35.309Z,1.56
2017-01-10T00:32:59.601Z,1.55
2017-01-10T00:33:21.358Z,1.57
2017-01-10T00:33:48.864Z,1.59
2017-01-10T00:34:10.631Z,1.58
2017-01-10T00:34:32.377Z,1.57
2017-01-10T00:34:54.256Z,1.58
2017-01-10T00:35:16.058Z,1.56
2017-01-10T00:37:24.224Z,1.58
2017-01-10T00:37:45.983Z,1.59
2017-01-10T00:38:07.744Z,1.59
2017-01-10T00:38:34.271Z,1.57
2017-01-10T00:39:01.808Z,1.59
2017-01-10T00:39:23.575Z,1.57
2017-01-10T00:39:46.336Z,1.58
2017-01-10T00:40:39.363Z,1.61
2017-01-10T00:41:01.132Z,1.60
2017-01-10T00:41:22.889Z,1.60
2017-01-10T00:41:44.651Z,1.60
2017-01-10T00:42:06.398Z,1.58
2017-01-10T00:42:37.891Z,1.60
2017-01-10T00:43:05.401Z,1.59
2017-01-10T00:43:29.996Z,1.59
2017-01-10T00:43:51.754Z,1.60
2017-01-10T00:44:13.530Z,1.61
2017-01-10T00:45:02.830Z,1.63
2017-01-10T00:45:27.197Z,1.62
2017-01-10T00:45:48.964Z,1.63
2017-01-10T00:46:10.722Z,1.64
2017-01-10T00:46:32.486Z,1.65
2017-01-10T00:47:22.752Z,1.62
2017-01-10T00:48:13.063Z,1.61
2017-01-10T00:48:34.812Z,1.62
2017-01-10T00:48:59.247Z,1.61
2017-01-10T00:49:24.587Z,1.63
2017-01-10T00:49:46.343Z,1.63
2017-01-10T00:50:08.105Z,1.64
2017-01-10T00:51:01.149Z,1.64
2017-01-10T00:51:23.002Z,1.63
2017-01-10T00:51:44.768Z,1.65
2017-01-10T00:52:06.546Z,1.65
2017-01-10T00:52:28.387Z,1.65
2017-01-10T00:52:50.151Z,1.66
2017-01-10T00:53:11.913Z,1.67
2017-01-10T00:53:34.695Z,1.68
2017-01-10T00:53:56.437Z,1.68
2017-01-10T00:54:18.219Z,1.68
2017-01-10T00:54:45.719Z,1.67
2017-01-10T00:55:10.154Z,1.67
2017-01-10T00:55:31.916Z,1.67
2017-01-10T00:55:58.437Z,1.68
2017-01-10T00:56:24.963Z,1.68
2017-01-10T00:56:51.453Z,1.68
2017-01-10T00:57:14.600Z,1.68
2017-01-10T00:57:48.835Z,1.70
2017-01-10T00:58:42.854Z,1.72
2017-01-10T00:59:08.416Z,1.72
2017-01-10T00:59:30.153Z,1.72
2017-01-10T00:59:57.662Z,1.69
2017-01-10T01:00:19.623Z,1.69
2017-01-10T01:00:41.386Z,1.69
2017-01-10T01:01:07.062Z,1.70
2017-01-10T01:01:28.815Z,1.71
2017-01-10T01:01:50.586Z,1.69
2017-01-10T01:02:12.331Z,1.70
2017-01-10T01:02:34.089Z,1.72
2017-01-10T01:03:00.610Z,1.73
2017-01-10T01:03:22.361Z,1.75
2017-01-10T01:03:44.111Z,1.75
2017-01-10T01:04:06.873Z,1.73
2017-01-10T01:04:33.394Z,1.72
2017-01-10T01:04:57.783Z,1.73
2017-01-10T01:05:19.507Z,1.71
2017-01-10T01:05:41.281Z,1.71
2017-01-10T01:06:03.038Z,1.72
2017-01-10T01:06:29.549Z,1.71
2017-01-10T01:06:51.303Z,1.72
2017-01-10T01:07:17.819Z,1.72
2017-01-10T01:07:39.589Z,1.72
2017-01-10T01:08:28.861Z,1.71
2017-01-10T01:08:50.620Z,1.71
2017-01-10T01:09:12.568Z,1.72
2017-01-10T01:09:34.316Z,1.72
2017-01-10T01:09:56.077Z,1.72
2017-01-10T01:10:17.810Z,1.72
2017-01-10T01:10:39.611Z,1.72
2017-01-10T01:11:01.406Z,1.72
2017-01-10T01:11:27.929Z,1.73
2017-01-10T01:11:49.685Z,1.72
2017-01-10T01:12:11.480Z,1.72
2017-01-10T01:12:33.242Z,1.69
2017-01-10T01:13:21.519Z,1.69
2017-01-10T01:13:43.420Z,1.69
2017-01-10T01:14:05.174Z,1.70
2017-01-10T01:14:37.442Z,1.72
2017-01-10T01:14:59.206Z,1.71
2017-01-10T01:15:21.942Z,1.73
2017-01-10T01:15:43.730Z,1.72
2017-01-10T01:16:05.496Z,1.72
2017-01-10T01:16:36.773Z,1.71
2017-01-10T01:16:58.509Z,1.72
2017-01-10T01:17:20.296Z,1.72
2017-01-10T01:17:43.052Z,1.72
2017-01-10T01:18:07.541Z,1.71
2017-01-10T01:19:05.491Z,1.72
2017-01-10T01:19:32.016Z,1.73
2017-01-10T01:19:53.766Z,1.73
2017-01-10T01:20:20.287Z,1.73
2017-01-10T01:20:43.045Z,1.73
2017-01-10T01:21:04.792Z,1.75
2017-01-10T01:21:26.671Z,1.74
2017-01-10T01:21:49.417Z,1.75
2017-01-10T01:22:12.166Z,1.75
2017-01-10T01:22:33.938Z,1.77
2017-01-10T01:22:55.695Z,1.76
2017-01-10T01:23:18.450Z,1.75
2017-01-10T01:24:36.025Z,1.74
2017-01-10T01:25:02.557Z,1.74
2017-01-10T01:25:24.323Z,1.75
2017-01-10T01:25:46.092Z,1.76
2017-01-10T01:26:08.924Z,1.76
2017-01-10T01:26:37.436Z,1.77
2017-01-10T01:26:59.199Z,1.78
2017-01-10T01:27:20.952Z,1.78
2017-01-10T01:27:42.709Z,1.77
2017-01-10T01:28:04.469Z,1.78
2017-01-10T01:28:26.217Z,1.78
2017-01-10T01:28:53.734Z,1.77
2017-01-10T01:29:42.015Z,1.77
2017-01-10T01:30:03.773Z,1.78
2017-01-10T01:30:25.542Z,1.79
2017-01-10T01:30:48.322Z,1.78
2017-01-10T01:31:14.854Z,1.76
2017-01-10T01:31:41.411Z,1.77
2017-01-10T01:32:03.165Z,1.76
2017-01-10T01:32:24.925Z,1.77
2017-01-10T01:32:47.678Z,1.76
2017-01-10T01:33:10.498Z,1.76
2017-01-10T01:33:34.872Z,1.79
2017-01-10T01:33:56.640Z,1.79
2017-01-10T01:34:19.385Z,1.78
2017-01-10T01:34:41.123Z,1.79
2017-01-10T01:35:02.875Z,1.78
2017-01-10T01:35:24.652Z,1.77
2017-01-10T01:35:53.155Z,1.77
2017-01-10T01:36:16.917Z,1.77
2017-01-10T01:36:43.567Z,1.77
2017-01-10T01:37:05.334Z,1.75
2017-01-10T01:37:31.855Z,1.76
2017-01-10T01:37:54.646Z,1.76
2017-01-10T01:38:16.411Z,1.78
2017-01-10T01:38:38.168Z,1.77
2017-01-10T01:38:59.936Z,1.79
2017-01-10T01:39:48.197Z,1.78
2017-01-10T01:40:09.943Z,1.78
2017-01-10T01:40:31.691Z,1.79
2017-01-10T01:40:53.487Z,1.78
2017-01-10T01:41:15.314Z,1.78
2017-01-10T01:41:37.077Z,1.79
2017-01-10T01:42:03.587Z,1.79
2017-01-10T01:42:56.633Z,1.79
2017-01-10T01:43:23.158Z,1.79
2017-01-10T01:43:44.928Z,1.78
2017-01-10T01:44:06.688Z,1.80
2017-01-10T01:45:27.216Z,1.80
2017-01-10T01:45:48.982Z,1.81
2017-01-10T01:46:13.350Z,1.78
2017-01-10T01:46:40.913Z,1.80
2017-01-10T01:47:12.210Z,1.81
2017-01-10T01:47:38.713Z,1.81
2017-01-10T01:48:00.453Z,1.82
2017-01-10T01:48:25.129Z,1.80
2017-01-10T01:49:18.172Z,1.80
2017-01-10T01:49:44.693Z,1.81
2017-01-10T01:50:07.455Z,1.82
2017-01-10T01:50:29.212Z,1.82
2017-01-10T01:50:55.872Z,1.79
2017-01-10T01:51:18.654Z,1.80
2017-01-10T01:52:08.929Z,1.79
2017-01-10T01:52:31.685Z,1.81
2017-01-10T01:53:02.968Z,1.81
2017-01-10T01:53:29.483Z,1.80
2017-01-10T01:54:22.879Z,1.81
2017-01-10T01:54:46.634Z,1.82
2017-01-10T01:55:45.414Z,1.83
2017-01-10T01:56:39.461Z,1.84
2017-01-10T01:58:00.022Z,1.83
2017-01-10T01:58:23.772Z,1.84
2017-01-10T01:58:50.302Z,1.84
2017-01-10T01:59:18.818Z,1.84
2017-01-10T01:59:41.573Z,1.82
2017-01-10T02:00:08.070Z,1.81
2017-01-10T02:00:29.821Z,1.83
2017-01-10T02:01:24.081Z,1.81
2017-01-10T02:01:51.583Z,1.82
2017-01-10T02:02:18.105Z,1.82
2017-01-10T02:02:39.849Z,1.81
2017-01-10T02:03:06.357Z,1.79
2017-01-10T02:03:32.875Z,1.79
2017-01-10T02:03:56.613Z,1.79
2017-01-10T02:04:21.353Z,1.79
2017-01-10T02:04:47.874Z,1.80
2017-01-10T02:05:09.624Z,1.79
2017-01-10T02:05:35.955Z,1.80
2017-01-10T02:06:03.484Z,1.80
2017-01-10T02:06:30.021Z,1.79
2017-01-10T02:06:56.542Z,1.80
2017-01-10T02:07:18.420Z,1.81
2017-01-10T02:07:50.697Z,1.81
2017-01-10T02:08:57.272Z,1.81
2017-01-10T02:09:45.508Z,1.82
2017-01-10T02:10:08.259Z,1.79
2017-01-10T02:10:30.009Z,1.80
2017-01-10T02:10:56.527Z,1.81
2017-01-10T02:11:18.280Z,1.81
2017-01-10T02:11:41.025Z,1.81
2017-01-10T02:12:03.792Z,1.80
2017-01-10T02:12:25.551Z,1.81
2017-01-10T02:12:48.315Z,1.81
2017-01-10T02:13:14.814Z,1.81
2017-01-10T02:13:41.339Z,1.81
2017-01-10T02:14:03.084Z,1.81
2017-01-10T02:14:59.105Z,1.80
2017-01-10T02:15:20.872Z,1.79
2017-01-10T02:15:52.159Z,1.79
2017-01-10T02:16:45.200Z,1.80
2017-01-10T02:17:07.966Z,1.80
2017-01-10T02:17:32.665Z,1.79
2017-01-10T02:18:28.361Z,1.79
2017-01-10T02:18:54.891Z,1.76
2017-01-10T02:19:17.643Z,1.77
2017-01-10T02:19:40.398Z,1.78
2017-01-10T02:20:02.166Z,1.77
2017-01-10T02:20:29.680Z,1.77
2017-01-10T02:20:51.433Z,1.76
2017-01-10T02:21:13.174Z,1.76
2017-01-10T02:21:39.698Z,1.75
2017-01-10T02:22:01.454Z,1.75
2017-01-10T02:22:23.214Z,1.76
2017-01-10T02:22:44.955Z,1.74
2017-01-10T02:23:07.923Z,1.75
2017-01-10T02:23:32.263Z,1.75
2017-01-10T02:24:49.621Z,1.76
2017-01-10T02:25:16.118Z,1.76
2017-01-10T02:25:37.884Z,1.76
2017-01-10T02:25:59.638Z,1.73
2017-01-10T02:26:21.385Z,1.74
2017-01-10T02:26:43.135Z,1.75
2017-01-10T02:27:15.404Z,1.75
2017-01-10T02:27:41.923Z,1.75
2017-01-10T02:28:03.682Z,1.75
2017-01-10T02:28:25.437Z,1.76
2017-01-10T02:28:47.177Z,1.75
2017-01-10T02:29:08.928Z,1.77
2017-01-10T02:29:30.685Z,1.77
2017-01-10T02:29:56.287Z,1.76
2017-01-10T02:30:49.453Z,1.79
2017-01-10T02:31:15.961Z,1.81
2017-01-10T02:31:42.487Z,1.81
2017-01-10T02:32:09.004Z,1.81
2017-01-10T02:32:35.525Z,1.79
2017-01-10T02:32:58.319Z,1.80
2017-01-10T02:33:24.829Z,1.79
2017-01-10T02:33:48.584Z,1.79
2017-01-10T02:34:10.335Z,1.78
2017-01-10T02:34:41.615Z,1.79
2017-01-10T02:35:03.389Z,1.80
2017-01-10T02:35:29.722Z,1.79
2017-01-10T02:35:52.488Z,1.81
2017-01-10T02:36:17.104Z,1.80
2017-01-10T02:37:05.375Z,1.82
2017-01-10T02:38:51.498Z,1.82
2017-01-10T02:39:18.063Z,1.81
2017-01-10T02:39:40.829Z,1.82
2017-01-10T02:40:07.338Z,1.83
2017-01-10T02:40:36.391Z,1.82
2017-01-10T02:41:05.735Z,1.82
2017-01-10T02:42:32.893Z,1.81
2017-01-10T02:42:54.664Z,1.82
2017-01-10T02:43:16.404Z,1.82
2017-01-10T02:43:44.512Z,1.83
2017-01-10T02:44:40.458Z,1.82
2017-01-10T02:45:04.212Z,1.80
2017-01-10T02:45:35.507Z,1.81
2017-01-10T02:45:59.282Z,1.81
2017-01-10T02:46:22.026Z,1.82
2017-01-10T02:46:44.776Z,1.82
2017-01-10T02:47:11.091Z,1.81
2017-01-10T02:47:37.603Z,1.81
2017-01-10T02:48:05.111Z,1.81
2017-01-10T02:48:31.636Z,1.80
2017-01-10T02:48:53.396Z,1.79
2017-01-10T02:49:16.141Z,1.81
2017-01-10T02:49:37.942Z,1.81
2017-01-10T02:50:04.454Z,1.79
2017-01-10T02:50:52.737Z,1.81
2017-01-10T02:51:19.252Z,1.82
2017-01-10T02:51:45.781Z,1.83
2017-01-10T02:52:09.527Z,1.83
2017-01-10T02:52:34.033Z,1.83
2017-01-10T02:53:00.557Z,1.83
2017-01-10T02:53:25.302Z,1.81
2017-01-10T02:53:51.814Z,1.80
2017-01-10T02:54:14.577Z,1.81
2017-01-10T02:54:40.256Z,1.81
2017-01-10T02:55:04.016Z,1.82
2017-01-10T02:55:25.763Z,1.82
2017-01-10T02:55:47.551Z,1.82
2017-01-10T02:56:15.097Z,1.82
2017-01-10T02:56:39.452Z,1.84
2017-01-10T02:57:05.962Z,1.83
2017-01-10T02:57:35.437Z,1.84
2017-01-10T02:58:00.005Z,1.84
2017-01-10T02:58:21.762Z,1.84
2017-01-10T02:58:48.286Z,1.83
2017-01-10T02:59:15.628Z,1.81
2017-01-10T02:59:40.967Z,1.85
2017-01-10T03:00:07.471Z,1.84
2017-01-10T03:00:34.986Z,1.84
2017-01-10T03:00:57.738Z,1.82
2017-01-10T03:01:29.018Z,1.84
2017-01-10T03:02:01.300Z,1.84
2017-01-10T03:02:28.831Z,1.84
2017-01-10T03:02:58.335Z,1.82
2017-01-10T03:05:04.460Z,1.84
2017-01-10T03:05:57.473Z,1.83
2017-01-10T03:06:31.323Z,1.82
2017-01-10T03:06:57.822Z,1.83
2017-01-10T03:08:34.445Z,1.84
2017-01-10T03:09:06.722Z,1.84
2017-01-10T03:10:02.968Z,1.84
2017-01-10T03:10:27.312Z,1.85
2017-01-10T03:11:30.602Z,1.86
2017-01-10T03:11:57.654Z,1.85
2017-01-10T03:12:26.788Z,1.87
2017-01-10T03:12:58.682Z,1.85
2017-01-10T03:13:22.540Z,1.86
2017-01-10T03:15:21.449Z,1.84
2017-01-10T03:16:18.883Z,1.84
2017-01-10T03:17:36.498Z,1.85
2017-01-10T03:18:09.297Z,1.85
2017-01-10T03:18:37.625Z,1.84
2017-01-10T03:19:08.896Z,1.84
2017-01-10T03:20:08.710Z,1.84
2017-01-10T03:20:35.235Z,1.84
2017-01-10T03:21:01.741Z,1.84
2017-01-10T03:21:23.514Z,1.84
2017-01-10T03:21:54.792Z,1.81
2017-01-10T03:23:26.658Z,1.84
2017-01-10T03:23:48.405Z,1.85
2017-01-10T03:24:14.930Z,1.85
2017-01-10T03:24:36.695Z,1.85
2017-01-10T03:25:34.309Z,1.85
2017-01-10T03:25:58.767Z,1.85
2017-01-10T03:26:30.253Z,1.84
2017-01-10T03:26:52.013Z,1.84
2017-01-10T03:27:13.792Z,1.84
2017-01-10T03:27:35.537Z,1.83
2017-01-10T03:27:57.296Z,1.83
2017-01-10T03:28:20.068Z,1.82
2017-01-10T03:28:44.670Z,1.82
2017-01-10T03:29:06.434Z,1.84
2017-01-10T03:29:29.264Z,1.82
2017-01-10T03:29:55.782Z,1.83
2017-01-10T03:30:49.903Z,1.83
2017-01-10T03:31:12.663Z,1.84
2017-01-10T03:31:37.060Z,1.83
2017-01-10T03:31:58.819Z,1.83
2017-01-10T03:32:25.347Z,1.85
2017-01-10T03:33:30.060Z,1.83
2017-01-10T03:33:52.797Z,1.82
2017-01-10T03:35:07.559Z,1.82
2017-01-10T03:35:34.093Z,1.81
2017-01-10T03:35:56.842Z,1.81
2017-01-10T03:37:43.142Z,1.79
2017-01-10T03:38:07.407Z,1.80
2017-01-10T03:38:29.165Z,1.77
2017-01-10T03:38:50.929Z,1.78
2017-01-10T03:39:12.698Z,1.79
2017-01-10T03:39:37.259Z,1.76
2017-01-10T03:40:05.844Z,1.76
2017-01-10T03:41:20.621Z,1.77
2017-01-10T03:41:42.388Z,1.78
2017-01-10T03:42:09.904Z,1.79
2017-01-10T03:42:36.461Z,1.78
2017-01-10T03:42:58.216Z,1.80
2017-01-10T03:43:20.980Z,1.79
2017-01-10T03:43:42.760Z,1.79
2017-01-10T03:44:09.264Z,1.77
2017-01-10T03:44:32.006Z,1.76
2017-01-10T03:45:26.022Z,1.77
2017-01-10T03:45:47.787Z,1.76
2017-01-10T03:46:09.545Z,1.77
2017-01-10T03:46:31.294Z,1.80
2017-01-10T03:46:53.054Z,1.78
2017-01-10T03:47:14.812Z,1.75
2017-01-10T03:47:37.559Z,1.76
2017-01-10T03:47:59.319Z,1.76
2017-01-10T03:48:21.094Z,1.76
2017-01-10T03:48:42.849Z,1.77
2017-01-10T03:49:10.368Z,1.77
2017-01-10T03:49:32.131Z,1.76
2017-01-10T03:49:53.878Z,1.76
2017-01-10T03:50:15.626Z,1.76
2017-01-10T03:50:37.396Z,1.76
2017-01-10T03:51:00.177Z,1.76
2017-01-10T03:51:26.707Z,1.76
2017-01-10T03:51:48.459Z,1.75
2017-01-10T03:52:10.225Z,1.76
2017-01-10T03:52:31.988Z,1.77
2017-01-10T03:52:53.749Z,1.76
2017-01-10T03:53:20.279Z,1.77
2017-01-10T03:53:42.038Z,1.75
2017-01-10T03:54:03.767Z,1.76
2017-01-10T03:54:30.289Z,1.76
2017-01-10T03:54:56.814Z,1.75
2017-01-10T03:55:18.555Z,1.75
2017-01-10T03:55:43.284Z,1.75
2017-01-10T03:56:05.059Z,1.75
2017-01-10T03:56:31.594Z,1.76
2017-01-10T03:56:53.352Z,1.75
2017-01-10T03:57:15.097Z,1.75
2017-01-10T03:57:36.854Z,1.76
2017-01-10T03:57:58.621Z,1.77
2017-01-10T03:58:20.373Z,1.75
2017-01-10T03:58:42.124Z,1.74
2017-01-10T03:59:03.879Z,1.74
2017-01-10T03:59:25.636Z,1.73
2017-01-10T03:59:47.389Z,1.73
2017-01-10T04:00:10.166Z,1.73
2017-01-10T04:00:32.986Z,1.72
2017-01-10T04:01:47.946Z,1.71
2017-01-10T04:02:10.730Z,1.71
2017-01-10T04:02:32.508Z,1.72
2017-01-10T04:02:54.266Z,1.73
2017-01-10T04:03:20.784Z,1.74
2017-01-10T04:03:47.343Z,1.72
2017-01-10T04:04:11.987Z,1.72
2017-01-10T04:04:33.755Z,1.72
2017-01-10T04:05:48.385Z,1.69
2017-01-10T04:06:36.666Z,1.65
2017-01-10T04:07:03.195Z,1.66
2017-01-10T04:07:24.937Z,1.68
2017-01-10T04:07:46.701Z,1.68
2017-01-10T04:08:08.449Z,1.68
2017-01-10T04:09:06.269Z,1.68
2017-01-10T04:09:28.266Z,1.67
2017-01-10T04:09:49.895Z,1.68
2017-01-10T04:10:13.649Z,1.67
2017-01-10T04:10:35.396Z,1.67
2017-01-10T04:10:57.354Z,1.69
2017-01-10T04:11:19.129Z,1.71
2017-01-10T04:11:40.896Z,1.71
2017-01-10T04:12:03.641Z,1.70
2017-01-10T04:12:25.405Z,1.71
2017-01-10T04:12:47.164Z,1.70
2017-01-10T04:13:08.928Z,1.72
2017-01-10T04:13:57.191Z,1.72
2017-01-10T04:14:20.965Z,1.72
2017-01-10T04:14:47.486Z,1.72
2017-01-10T04:15:09.236Z,1.72
2017-01-10T04:15:35.760Z,1.72
2017-01-10T04:16:02.271Z,1.72
2017-01-10T04:16:33.584Z,1.71
2017-01-10T04:18:27.714Z,1.70
2017-01-10T04:18:49.484Z,1.68
2017-01-10T04:19:20.754Z,1.71
2017-01-10T04:19:53.039Z,1.72
2017-01-10T04:20:22.211Z,1.71
2017-01-10T04:21:12.504Z,1.69
2017-01-10T04:21:35.260Z,1.69
2017-01-10T04:22:53.617Z,1.70
2017-01-10T04:23:20.087Z,1.69
2017-01-10T04:23:41.846Z,1.66
2017-01-10T04:24:31.964Z,1.63
2017-01-10T04:26:08.833Z,1.67
2017-01-10T04:26:35.560Z,1.66
2017-01-10T04:27:29.586Z,1.65
2017-01-10T04:28:24.658Z,1.65
2017-01-10T04:28:56.521Z,1.67
2017-01-10T04:29:52.261Z,1.69
2017-01-10T04:30:18.770Z,1.67
2017-01-10T04:30:45.300Z,1.65
2017-01-10T04:31:16.604Z,1.63
2017-01-10T04:31:48.383Z,1.64
2017-01-10T04:32:14.788Z,1.64
2017-01-10T04:32:46.072Z,1.67
2017-01-10T04:33:07.830Z,1.66
2017-01-10T04:34:35.980Z,1.66
2017-01-10T04:35:29.003Z,1.62
2017-01-10T04:35:53.552Z,1.62
2017-01-10T04:36:18.848Z,1.63
2017-01-10T04:36:43.195Z,1.64
2017-01-10T04:37:04.943Z,1.65
2017-01-10T04:37:30.358Z,1.66
2017-01-10T04:38:16.267Z,1.66
2017-01-10T04:39:15.914Z,1.68
2017-01-10T04:40:08.777Z,1.68
2017-01-10T04:42:05.392Z,1.69
2017-01-10T04:42:27.139Z,1.68
2017-01-10T04:42:50.892Z,1.70
2017-01-10T04:43:12.649Z,1.69
2017-01-10T04:43:35.693Z,1.68
2017-01-10T04:43:57.449Z,1.66
2017-01-10T04:44:20.213Z,1.64
2017-01-10T04:45:15.256Z,1.62
2017-01-10T04:46:03.571Z,1.61
2017-01-10T04:47:55.818Z,1.63
2017-01-10T04:48:19.605Z,1.65
2017-01-10T04:48:42.381Z,1.66
2017-01-10T04:49:08.893Z,1.66
2017-01-10T04:49:36.396Z,1.67
2017-01-10T04:49:58.147Z,1.66
2017-01-10T04:50:19.913Z,1.65
2017-01-10T04:51:12.973Z,1.65
2017-01-10T04:51:39.500Z,1.65
2017-01-10T04:52:06.023Z,1.65
2017-01-10T04:52:27.788Z,1.65
2017-01-10T04:52:55.290Z,1.66
2017-01-10T04:53:19.706Z,1.66
2017-01-10T04:53:41.463Z,1.66
2017-01-10T04:54:30.713Z,1.67
2017-01-10T04:54:52.458Z,1.68
2017-01-10T04:55:15.248Z,1.67
2017-01-10T04:55:36.996Z,1.66
2017-01-10T04:55:58.748Z,1.68
2017-01-10T04:56:25.284Z,1.66
2017-01-10T04:56:51.793Z,1.65
2017-01-10T04:57:19.305Z,1.66
2017-01-10T04:58:12.364Z,1.66
2017-01-10T04:59:34.972Z,1.65
2017-01-10T05:01:26.616Z,1.62
2017-01-10T05:01:53.149Z,1.62
2017-01-10T05:02:19.664Z,1.64
2017-01-10T05:02:51.940Z,1.64
2017-01-10T05:03:45.992Z,1.65
2017-01-10T05:04:18.270Z,1.65
2017-01-10T05:04:40.012Z,1.63
2017-01-10T05:05:07.525Z,1.62
2017-01-10T05:05:29.279Z,1.60
2017-01-10T05:05:51.035Z,1.59
2017-01-10T05:06:13.800Z,1.59
2017-01-10T05:06:35.546Z,1.59
2017-01-10T05:06:59.319Z,1.60
2017-01-10T05:07:21.104Z,1.61
2017-01-10T05:07:42.843Z,1.61
2017-01-10T05:08:09.355Z,1.63
2017-01-10T05:08:33.104Z,1.64
2017-01-10T05:09:37.659Z,1.63
2017-01-10T05:10:01.413Z,1.62
2017-01-10T05:10:24.168Z,1.62
2017-01-10T05:10:51.690Z,1.62
2017-01-10T05:11:20.893Z,1.63
2017-01-10T05:11:47.537Z,1.63
2017-01-10T05:12:10.292Z,1.62
2017-01-10T05:12:36.834Z,1.64
2017-01-10T05:13:03.352Z,1.65
2017-01-10T05:13:26.091Z,1.66
2017-01-10T05:13:49.845Z,1.65
2017-01-10T05:14:12.612Z,1.63
2017-01-10T05:14:34.431Z,1.64
2017-01-10T05:16:28.962Z,1.61
2017-01-10T05:16:52.719Z,1.61
2017-01-10T05:17:14.494Z,1.60
2017-01-10T05:17:41.009Z,1.61
2017-01-10T05:18:03.764Z,1.59
2017-01-10T05:18:56.817Z,1.58
2017-01-10T05:19:19.589Z,1.57
2017-01-10T05:19:46.101Z,1.56
2017-01-10T05:20:12.644Z,1.54
2017-01-10T05:21:00.926Z,1.53
2017-01-10T05:21:27.461Z,1.54
2017-01-10T05:21:58.732Z,1.53
2017-01-10T05:22:20.697Z,1.52
2017-01-10T05:22:43.489Z,1.52
2017-01-10T05:23:06.236Z,1.54
2017-01-10T05:23:27.989Z,1.54
2017-01-10T05:23:49.752Z,1.55
2017-01-10T05:24:13.487Z,1.55
2017-01-10T05:25:07.556Z,1.56
2017-01-10T05:25:29.308Z,1.56
2017-01-10T05:25:51.064Z,1.56
2017-01-10T05:26:12.818Z,1.55
2017-01-10T05:26:35.588Z,1.56
2017-01-10T05:26:58.356Z,1.55
2017-01-10T05:27:46.628Z,1.56
2017-01-10T05:28:08.379Z,1.56
2017-01-10T05:29:04.220Z,1.55
2017-01-10T05:29:52.473Z,1.55
2017-01-10T05:30:45.503Z,1.53
2017-01-10T05:31:13.029Z,1.54
2017-01-10T05:31:34.786Z,1.54
2017-01-10T05:31:56.552Z,1.51
2017-01-10T05:32:18.311Z,1.49
2017-01-10T05:32:40.107Z,1.47
2017-01-10T05:33:43.641Z,1.48
2017-01-10T05:34:41.971Z,1.51
2017-01-10T05:35:03.731Z,1.51
2017-01-10T05:35:30.243Z,1.50
2017-01-10T05:36:55.181Z,1.54
2017-01-10T05:37:20.512Z,1.55
2017-01-10T05:37:51.795Z,1.56
2017-01-10T05:38:13.556Z,1.54
2017-01-10T05:38:43.074Z,1.55
2017-01-10T05:39:42.307Z,1.58
2017-01-10T05:40:08.825Z,1.58
2017-01-10T05:41:09.549Z,1.54
2017-01-10T05:41:40.829Z,1.56
2017-01-10T05:43:16.132Z,1.57
2017-01-10T05:43:37.866Z,1.57
2017-01-10T05:44:07.382Z,1.59
2017-01-10T05:44:33.732Z,1.59
2017-01-10T05:44:56.529Z,1.58
2017-01-10T05:45:54.342Z,1.56
2017-01-10T05:46:16.105Z,1.55
2017-01-10T05:46:38.889Z,1.56
2017-01-10T05:47:01.640Z,1.56
2017-01-10T05:47:23.411Z,1.59
2017-01-10T05:47:51.008Z,1.60
2017-01-10T05:48:13.757Z,1.59
2017-01-10T05:48:35.511Z,1.57
2017-01-10T05:48:57.257Z,1.55
2017-01-10T05:49:29.533Z,1.56
2017-01-10T05:49:56.068Z,1.59
2017-01-10T05:51:16.685Z,1.61
2017-01-10T05:51:43.192Z,1.60
2017-01-10T05:52:41.998Z,1.58
2017-01-10T05:53:03.758Z,1.58
2017-01-10T05:54:01.569Z,1.57
2017-01-10T05:54:28.090Z,1.58
2017-01-10T05:55:28.535Z,1.61
2017-01-10T05:56:37.828Z,1.64
2017-01-10T05:58:20.393Z,1.60
2017-01-10T05:58:47.917Z,1.61
2017-01-10T05:59:14.431Z,1.62
2017-01-10T06:00:03.505Z,1.65
2017-01-10T06:01:18.292Z,1.63
2017-01-10T06:01:40.031Z,1.64
2017-01-10T06:02:07.542Z,1.64
2017-01-10T06:03:34.840Z,1.65
2017-01-10T06:03:58.605Z,1.64
2017-01-10T06:04:23.181Z,1.63
2017-01-10T06:04:56.445Z,1.63
2017-01-10T06:05:22.958Z,1.62
2017-01-10T06:05:45.700Z,1.62
2017-01-10T06:06:53.034Z,1.63
2017-01-10T06:08:26.165Z,1.60
2017-01-10T06:09:58.443Z,1.61
2017-01-10T06:12:55.111Z,1.64
2017-01-10T06:13:23.633Z,1.65
2017-01-10T06:13:54.941Z,1.65
2017-01-10T06:14:17.793Z,1.65
2017-01-10T06:14:46.755Z,1.61
2017-01-10T06:15:45.460Z,1.55
2017-01-10T06:16:13.979Z,1.56
2017-01-10T06:17:39.365Z,1.58
2017-01-10T06:18:06.877Z,1.59
2017-01-10T06:18:33.438Z,1.59
2017-01-10T06:19:09.456Z,1.58
2017-01-10T06:19:38.912Z,1.58
2017-01-10T06:20:06.485Z,1.55
2017-01-10T06:20:35.028Z,1.55
2017-01-10T06:20:56.801Z,1.55
2017-01-10T06:21:52.411Z,1.54
2017-01-10T06:22:23.709Z,1.51
2017-01-10T06:22:48.426Z,1.50
2017-01-10T06:23:47.221Z,1.47
2017-01-10T06:24:14.747Z,1.47
2017-01-10T06:24:42.269Z,1.49
2017-01-10T06:25:04.010Z,1.49
2017-01-10T06:25:30.370Z,1.49
2017-01-10T06:26:27.983Z,1.48
2017-01-10T06:26:51.743Z,1.48
2017-01-10T06:27:13.501Z,1.47
2017-01-10T06:27:35.260Z,1.49
2017-01-10T06:28:04.442Z,1.49
2017-01-10T06:28:30.959Z,1.47
2017-01-10T06:29:26.001Z,1.45
2017-01-10T06:29:47.751Z,1.42
2017-01-10T06:31:12.997Z,1.38
2017-01-10T06:31:39.529Z,1.37
2017-01-10T06:32:06.040Z,1.36
2017-01-10T06:32:27.814Z,1.36
2017-01-10T06:32:49.585Z,1.36
2017-01-10T06:33:12.396Z,1.36
2017-01-10T06:34:00.687Z,1.39
2017-01-10T06:34:25.458Z,1.41
2017-01-10T06:34:59.468Z,1.40
2017-01-10T06:35:25.980Z,1.41
2017-01-10T06:35:47.752Z,1.44
2017-01-10T06:37:07.300Z,1.47
2017-01-10T06:37:29.074Z,1.46
2017-01-10T06:37:50.844Z,1.47
2017-01-10T06:38:13.620Z,1.47
2017-01-10T06:38:35.387Z,1.49
2017-01-10T06:38:57.134Z,1.50
2017-01-10T06:39:23.669Z,1.51
2017-01-10T06:39:50.194Z,1.48
2017-01-10T06:40:17.727Z,1.49
2017-01-10T06:40:39.506Z,1.51
2017-01-10T06:41:02.277Z,1.51
2017-01-10T06:41:24.050Z,1.49
2017-01-10T06:41:50.582Z,1.46
2017-01-10T06:42:15.239Z,1.45
2017-01-10T06:42:36.993Z,1.44
2017-01-10T06:42:58.750Z,1.46
2017-01-10T06:43:20.494Z,1.45
2017-01-10T06:43:42.281Z,1.45
2017-01-10T06:44:04.074Z,1.44
2017-01-10T06:44:25.845Z,1.43
2017-01-10T06:44:52.369Z,1.39
2017-01-10T06:45:18.881Z,1.38
2017-01-10T06:45:40.638Z,1.35
2017-01-10T06:46:30.931Z,1.30
2017-01-10T06:46:52.674Z,1.28
2017-01-10T06:47:14.440Z,1.26
2017-01-10T06:48:02.726Z,1.22
2017-01-10T06:48:24.494Z,1.21
2017-01-10T06:48:46.243Z,1.19
2017-01-10T06:49:08.019Z,1.17
2017-01-10T06:49:30.825Z,1.19
2017-01-10T06:49:57.325Z,1.17
2017-01-10T06:50:19.098Z,1.16
2017-01-10T06:50:47.616Z,1.14
2017-01-10T06:51:14.121Z,1.15
2017-01-10T06:51:38.481Z,1.13
2017-01-10T06:52:00.252Z,1.12
2017-01-10T06:52:54.302Z,1.12
2017-01-10T06:53:16.072Z,1.11
2017-01-10T06:54:19.375Z,1.13
2017-01-10T06:55:17.185Z,1.12
2017-01-10T06:55:43.537Z,1.13
2017-01-10T06:56:34.530Z,1.15
2017-01-10T06:56:56.303Z,1.14
2017-01-10T06:58:21.675Z,1.09
2017-01-10T06:58:43.430Z,1.07